Latest Weather Observations for Moruya Airport

IDN60801

Issued at 1:03 pm EST Friday 18 August 2017 (issued every 30 minutes, with the page automatically refreshed every 10 minutes)

About weather observations | Map of weather stations | Latest weather observations for NSW | Other Formats
Station Details ID: 069148 Name: MORUYA AIRPORT AWS Lat: -35.90 Lon: 150.14 Height: 4.0 m
Data from the previous 72 hours. | See also: Recent months at Moruya Airport
Date/Time
EST
Temp
°C
App
Temp
°C
Dew
Point
°C
Rel
Hum
%
Delta-T
°C
Wind Press
QNH
hPa
Press
MSL
hPa
Rain since
9am
mm
Dir  Spd
km/h
Gust
km/h
Spd
kts
Gust
kts
18/01:00pm 17.3 10.4 -2.9 25 8.2 WSW 24 43 13 23 1003.9 1003.9 0.0
18/12:30pm 16.5 8.7 -3.6 25 8.0 WSW 28 46 15 25 1004.1 1004.1 0.0
18/12:00pm 17.6 9.9 -2.6 25 8.3 SW 28 43 15 23 1004.1 1004.1 0.0
18/11:30am 17.5 11.3 -3.3 24 8.4 WSW 20 33 11 18 1004.2 1004.2 0.0
18/11:00am 17.1 11.2 -2.5 26 8.0 WSW 19 32 10 17 1004.5 1004.5 0.0
18/10:30am 16.8 11.4 -1.3 29 7.6 W 17 30 9 16 1004.4 1004.4 0.0
18/10:00am 15.6 9.6 -2.8 28 7.4 W 19 32 10 17 1004.2 1004.2 0.0
18/09:30am 15.3 9.7 -3.1 28 7.3 W 17 28 9 15 1004.2 1004.2 0.0
18/09:00am 14.3 8.5 -1.7 33 6.5 W 19 30 10 16 1004.2 1004.2 0.0
18/08:30am 13.6 8.5 -1.9 34 6.2 W 15 28 8 15 1004.2 1004.2 0.0
18/08:00am 12.9 7.4 -2.2 35 6.0 W 17 33 9 18 1003.8 1003.8 0.0
18/07:30am 12.2 7.5 -2.0 37 5.6 W 13 22 7 12 1003.6 1003.6 0.0
18/07:00am 11.4 6.8 -1.4 41 5.1 W 13 22 7 12 1003.5 1003.5 0.0
18/06:30am 11.2 6.9 -1.5 41 5.0 WNW 11 20 6 11 1003.0 1003.0 0.0
18/06:00am 12.1 6.6 -1.8 38 5.5 W 17 30 9 16 1002.8 1002.8 0.0
18/05:30am 12.4 5.9 -2.2 36 5.7 W 22 39 12 21 1002.4 1002.4 0.0
18/05:00am 12.4 5.9 -2.2 36 5.7 WNW 22 37 12 20 1002.1 1002.1 0.0
18/04:30am 12.2 6.2 -1.7 38 5.5 WNW 20 35 11 19 1001.9 1001.9 0.0
18/04:00am 12.0 6.7 -0.5 42 5.1 WNW 17 39 9 21 1001.8 1001.8 0.0
18/03:30am 11.6 7.3 0.7 47 4.5 W 13 24 7 13 1002.1 1002.1 0.0
18/03:00am 11.7 7.4 1.1 48 4.5 WNW 13 26 7 14 1002.2 1002.2 0.0
18/02:30am 11.6 7.4 1.8 51 4.2 NW 13 26 7 14 1002.8 1002.8 0.0
18/02:00am 11.7 8.0 2.2 52 4.1 NW 11 20 6 11 1003.2 1003.2 0.0
18/01:30am 12.2 8.1 2.1 50 4.3 WNW 13 20 7 11 1003.4 1003.4 0.0
18/01:00am 12.6 8.5 2.2 49 4.5 WNW 13 30 7 16 1003.3 1003.3 0.0
18/12:30am 12.4 8.7 2.6 51 4.3 W 11 22 6 12 1004.0 1004.0 0.0
18/12:00am 12.7 8.7 3.1 52 4.3 WNW 13 32 7 17 1003.5 1003.5 0.0
 
Date/Time
EST
Temp
°C
App
Temp
°C
Dew
Point
°C
Rel
Hum
%
Delta-T
°C
Wind Press
QNH
hPa
Press
MSL
hPa
Rain since
9am
mm
Dir  Spd
km/h
Gust
km/h
Spd
kts
Gust
kts
17/11:30pm 12.6 8.3 3.3 53 4.1 WNW 15 24 8 13 1003.7 1003.7 0.0
17/11:00pm 12.4 9.4 3.9 56 3.8 WNW 9 17 5 9 1003.8 1003.8 0.0
17/10:30pm 13.0 8.4 3.9 54 4.1 WNW 17 30 9 16 1004.1 1004.1 0.0
17/10:00pm 13.3 9.5 3.9 53 4.3 W 13 24 7 13 1004.6 1004.6 0.0
17/09:30pm 14.2 9.2 3.4 48 4.9 W 19 28 10 15 1004.4 1004.4 0.0
17/09:00pm 14.4 10.1 3.2 47 5.1 WNW 15 30 8 16 1003.9 1003.9 0.0
17/08:30pm 14.5 10.9 3.0 46 5.2 NW 11 20 6 11 1003.8 1003.8 0.0
17/08:00pm 14.5 11.2 2.7 45 5.3 WNW 9 20 5 11 1003.8 1003.8 0.0
17/07:30pm 15.1 11.4 2.6 43 5.6 WNW 11 17 6 9 1003.6 1003.6 0.0
17/07:00pm 15.9 11.3 1.6 38 6.3 W 15 35 8 19 1003.7 1003.7 0.0
17/06:30pm 16.2 11.9 0.7 35 6.7 WNW 13 22 7 12 1003.5 1003.5 0.0
17/06:00pm 16.7 12.3 0.4 33 7.1 WNW 13 30 7 16 1002.8 1002.8 0.0
17/05:30pm 17.3 12.0 -0.4 30 7.6 WNW 17 28 9 15 1002.3 1002.3 0.0
17/05:00pm 17.8 12.5 -0.9 28 8.0 WNW 17 26 9 14 1001.7 1001.7 0.0
17/04:30pm 18.7 12.7 -1.2 26 8.5 NW 20 33 11 18 1001.3 1001.3 0.0
17/04:00pm 19.2 12.4 -1.8 24 8.9 WNW 24 43 13 23 1001.1 1001.1 0.0
17/03:44pm 19.3 11.8 -1.7 24 8.9 NW 28 46 15 25 1000.6 1000.6 0.0
17/03:30pm 19.7 13.8 -0.9 25 8.9 WNW 20 33 11 18 1000.8 1000.8 0.0
17/03:00pm 19.8 13.5 -0.8 25 9.0 WNW 22 44 12 24 1001.0 1001.0 0.0
17/02:30pm 19.8 12.3 -1.3 24 9.1 WNW 28 44 15 24 1001.3 1001.3 0.0
17/02:01pm 19.9 12.5 -0.7 25 9.0 WNW 28 46 15 25 1001.2 1001.2 0.0
17/02:00pm 19.7 11.9 -0.9 25 9.0 WNW 30 46 16 25 1001.2 1001.2 0.0
17/01:46pm 19.6 12.2 -0.9 25 8.9 NW 28 50 15 27 1001.2 1001.2 0.0
17/01:30pm 19.6 13.4 -0.4 26 8.7 WNW 22 41 12 22 1001.4 1001.4 0.0
17/01:03pm 19.3 12.1 0.4 28 8.4 WNW 28 46 15 25 1001.7 1001.7 0.0
17/01:00pm 19.4 12.5 0.4 28 8.5 WNW 26 46 14 25 1001.7 1001.7 0.0
17/12:32pm 19.5 12.3 1.0 29 8.3 WNW 28 48 15 26 1002.2 1002.2 0.0
17/12:30pm 19.5 13.1 1.0 29 8.3 WNW 24 44 13 24 1002.2 1002.2 0.0
17/12:00pm 18.9 11.5 1.9 32 7.8 WNW 30 54 16 29 1002.7 1002.7 0.0
17/11:32am 18.7 11.9 2.9 35 7.3 NW 28 48 15 26 1003.0 1003.0 0.0
17/11:30am 18.6 12.1 2.4 34 7.4 NW 26 48 14 26 1003.1 1003.1 0.0
17/11:04am 18.6 11.8 2.9 35 7.3 NW 28 48 15 26 1003.3 1003.3 0.0
17/11:00am 18.7 12.6 2.9 35 7.4 NW 24 48 13 26 1003.3 1003.3 0.0
17/10:35am 18.3 11.3 2.2 34 7.3 WNW 28 46 15 25 1003.5 1003.5 0.0
17/10:30am 18.3 11.4 2.6 35 7.2 WNW 28 43 15 23 1003.5 1003.5 0.0
17/10:00am 18.0 11.1 2.7 36 7.0 WNW 28 50 15 27 1003.8 1003.8 0.0
17/09:48am 17.8 11.0 2.9 37 6.8 WNW 28 54 15 29 1003.8 1003.8 0.0
17/09:30am 17.5 12.1 2.3 36 6.9 WNW 20 41 11 22 1004.1 1004.1 0.0
17/09:00am 17.0 11.3 2.6 38 6.6 WNW 22 50 12 27 1004.2 1004.2 0.2
17/08:30am 16.6 11.4 2.6 39 6.3 WNW 19 32 10 17 1004.3 1004.3 0.2
17/08:00am 15.9 11.8 2.3 40 6.1 WNW 13 28 7 15 1004.3 1004.3 0.2
17/07:30am 15.3 10.8 2.1 41 5.8 WNW 15 28 8 15 1004.0 1004.0 0.2
17/07:00am 14.9 9.9 1.4 40 5.9 W 17 41 9 22 1003.3 1003.3 0.2
17/06:30am 14.8 10.2 1.3 40 5.8 WNW 15 26 8 14 1003.1 1003.1 0.2
17/06:00am 14.1 9.9 1.7 43 5.4 NW 13 24 7 13 1003.0 1003.0 0.2
17/05:30am 14.0 10.2 1.6 43 5.4 WNW 11 22 6 12 1003.3 1003.3 0.2
17/05:00am 14.3 10.1 1.9 43 5.4 W 13 22 7 12 1003.4 1003.4 0.2
17/04:30am 14.6 10.0 1.8 42 5.6 W 15 28 8 15 1003.3 1003.3 0.2
17/04:00am 14.7 9.8 1.9 42 5.6 W 17 30 9 16 1003.2 1003.2 0.2
17/03:30am 14.7 10.2 2.3 43 5.5 W 15 26 8 14 1002.9 1002.9 0.2
17/03:00am 14.9 9.1 2.1 42 5.7 WNW 22 48 12 26 1002.7 1002.7 0.2
17/02:30am 14.8 9.9 1.7 41 5.7 W 17 33 9 18 1002.9 1002.9 0.2
17/02:00am 14.6 10.0 1.5 41 5.7 W 15 24 8 13 1003.5 1003.5 0.2
17/01:30am 14.3 10.5 1.6 42 5.5 W 11 20 6 11 1003.8 1003.8 0.2
17/01:00am 14.3 10.1 1.9 43 5.4 WNW 13 19 7 10 1004.0 1004.0 0.2
17/12:30am 14.6 10.3 1.2 40 5.8 W 13 22 7 12 1004.3 1004.3 0.2
17/12:00am 15.2 10.1 1.0 38 6.2 W 17 28 9 15 1004.3 1004.3 0.2
 
Date/Time
EST
Temp
°C
App
Temp
°C
Dew
Point
°C
Rel
Hum
%
Delta-T
°C
Wind Press
QNH
hPa
Press
MSL
hPa
Rain since
9am
mm
Dir  Spd
km/h
Gust
km/h
Spd
kts
Gust
kts
16/11:30pm 15.1 10.0 0.9 38 6.1 WNW 17 28 9 15 1004.5 1004.5 0.2
16/11:00pm 15.0 9.6 1.5 40 5.9 WNW 19 35 10 19 1004.7 1004.7 0.2
16/10:30pm 14.8 9.8 1.3 40 5.8 WNW 17 26 9 14 1004.7 1004.7 0.2
16/10:00pm 14.9 10.7 1.4 40 5.9 WNW 13 24 7 13 1004.8 1004.8 0.2
16/09:30pm 14.9 9.9 1.1 39 6.0 W 17 26 9 14 1004.7 1004.7 0.2
16/09:00pm 14.8 10.2 1.3 40 5.9 W 15 24 8 13 1004.8 1004.8 0.2
16/08:30pm 14.7 10.1 1.6 41 5.7 W 15 20 8 11 1004.4 1004.4 0.2
16/08:00pm 14.8 10.2 1.7 41 5.8 W 15 28 8 15 1004.1 1004.1 0.2
16/07:30pm 15.1 10.1 1.6 40 5.9 WNW 17 26 9 14 1003.8 1003.8 0.2
16/07:00pm 15.5 10.9 1.3 38 6.2 WNW 15 28 8 15 1003.6 1003.6 0.2
16/06:30pm 15.6 11.6 0.6 36 6.4 NW 11 20 6 11 1003.3 1003.3 0.2
16/06:00pm 16.5 11.7 0.2 33 7.0 W 15 32 8 17 1002.6 1002.6 0.2
16/05:30pm 16.6 12.3 0.7 34 6.9 WNW 13 22 7 12 1001.9 1001.9 0.2
16/05:00pm 17.3 12.6 0.9 33 7.2 WNW 15 26 8 14 1001.1 1001.1 0.2
16/04:30pm 18.5 13.5 1.1 31 7.8 NW 17 28 9 15 1000.3 1000.3 0.2
16/04:00pm 19.4 13.7 -0.6 26 8.7 W 19 30 10 16 999.8 999.8 0.2
16/03:30pm 19.6 13.4 -0.4 26 8.7 W 22 43 12 23 999.3 999.2 0.2
16/03:00pm 20.2 15.1 0.6 27 8.8 WNW 17 32 9 17 998.7 998.6 0.2
16/02:30pm 20.4 14.7 0.3 26 9.0 WNW 20 32 11 17 998.2 998.1 0.2
16/02:00pm 20.4 14.7 0.3 26 9.0 WNW 20 35 11 19 998.0 997.9 0.2
16/01:36pm 20.6 13.2 -0.7 24 9.3 WNW 28 50 15 27 997.6 997.5 0.2
16/01:30pm 20.6 14.3 -0.7 24 9.3 WNW 22 41 12 22 997.4 997.3 0.2
16/01:00pm 20.5 14.0 0.4 26 9.1 W 24 43 13 23 997.3 997.2 0.2
16/12:37pm 20.5 13.4 1.4 28 8.7 WNW 28 46 15 25 997.3 997.2 0.2
16/12:30pm 20.9 15.0 1.7 28 8.8 WNW 22 43 12 23 997.4 997.3 0.2
16/12:00pm 21.1 15.2 1.4 27 9.1 W 22 43 12 23 997.4 997.3 0.2
16/11:30am 20.6 14.7 1.5 28 8.7 WNW 22 43 12 23 997.4 997.3 0.2
16/11:06am 20.3 13.0 -0.3 25 9.1 W 28 46 15 25 997.4 997.3 0.2
16/11:00am 20.9 14.9 1.2 27 9.0 WNW 22 39 12 21 997.3 997.2 0.2
16/10:30am 20.3 14.9 2.6 31 8.2 WNW 20 37 11 20 997.2 997.1 0.0
16/10:00am 19.7 15.1 5.7 40 7.0 NW 19 33 10 18 997.1 997.0 0.0
16/09:30am 18.9 14.6 7.7 48 5.7 NNW 20 32 11 17 997.0 996.9 0.0
16/09:00am 18.2 13.4 7.3 49 5.5 NNW 22 43 12 23 996.9 996.8 1.2
16/08:30am 17.8 14.0 7.5 51 5.2 NW 17 30 9 16 996.8 996.7 1.2
16/08:00am 16.9 13.2 8.1 56 4.5 NNW 17 26 9 14 996.0 996.0 1.2
16/07:30am 16.8 12.9 8.5 58 4.2 NW 19 37 10 20 995.9 995.9 1.2
16/07:00am 17.2 14.1 8.9 58 4.3 WNW 15 24 8 13 995.6 995.6 1.2
16/06:30am 17.8 15.0 8.4 54 4.8 NW 13 24 7 13 995.5 995.5 1.2
16/06:00am 17.9 14.4 7.3 50 5.4 W 15 24 8 13 995.0 995.0 1.2
16/05:30am 15.8 12.5 8.1 60 3.9 WSW 15 24 8 13 995.1 995.1 1.2
16/05:00am 12.1 10.4 7.6 74 2.2 WSW 6 11 3 6 993.7 993.7 1.2
16/04:30am 12.1 10.3 7.8 75 2.1 NW 7 11 4 6 993.3 993.3 1.2
16/04:00am 13.4 12.8 7.4 67 3.0 CALM 0 7 0 4 993.3 993.3 1.2
16/03:30am 15.1 12.6 6.7 57 4.1 NNW 9 11 5 6 993.8 993.8 1.2
16/03:00am 16.9 14.0 6.7 51 5.1 NNW 11 17 6 9 994.4 994.4 1.2
16/02:30am 17.7 14.1 6.6 48 5.5 NNW 15 20 8 11 994.8 994.8 1.2
16/02:00am 18.0 15.1 6.5 47 5.7 NNW 11 19 6 10 995.2 995.2 1.2
16/01:30am 18.7 15.4 6.5 45 6.1 NNW 13 19 7 10 996.6 996.5 1.2
16/01:00am 16.8 14.9 7.4 54 4.7 NNW 7 11 4 6 997.1 997.0 1.2
16/12:30am 17.6 15.3 7.6 52 5.0 N 9 15 5 8 997.3 997.2 1.2
16/12:00am 19.1 16.3 6.9 45 6.2 N 11 15 6 8 998.2 998.1 1.2
 
Date/Time
EST
Temp
°C
App
Temp
°C
Dew
Point
°C
Rel
Hum
%
Delta-T
°C
Wind Press
QNH
hPa
Press
MSL
hPa
Rain since
9am
mm
Dir  Spd
km/h
Gust
km/h
Spd
kts
Gust
kts
15/11:30pm 20.1 16.7 6.1 40 7.0 N 13 17 7 9 998.9 998.8 1.2
15/11:00pm 20.8 17.5 6.4 39 7.3 N 13 20 7 11 999.4 999.3 1.2
15/10:30pm 21.2 17.9 6.3 38 7.5 N 13 20 7 11 999.6 999.5 1.2
15/10:00pm 21.1 17.8 6.2 38 7.5 N 13 20 7 11 1000.6 1000.6 1.2
15/09:30pm 21.7 19.2 6.4 37 7.8 NW 9 17 5 9 1001.1 1001.1 1.2
15/09:00pm 21.5 18.0 7.3 40 7.3 WNW 15 28 8 15 1001.3 1001.3 1.2
15/08:30pm 20.9 18.0 8.2 44 6.6 NNW 13 26 7 14 1002.2 1002.2 1.2
15/08:00pm 20.5 17.4 8.8 47 6.2 NNW 15 24 8 13 1002.5 1002.5 1.2
15/07:30pm 17.8 15.4 9.9 60 4.2 N 13 28 7 15 1002.8 1002.8 1.2
15/07:00pm 18.9 16.5 10.2 57 4.7 N 13 24 7 13 1002.7 1002.7 1.2
15/06:30pm 19.3 16.6 10.3 56 4.8 N 15 22 8 12 1002.5 1002.5 1.2
15/06:00pm 17.6 16.3 11.4 67 3.4 NNW 9 20 5 11 1002.7 1002.7 1.2
15/05:30pm 14.8 13.7 11.9 83 1.6 NNW 9 11 5 6 1002.9 1002.9 1.2
15/05:00pm 15.8 15.2 11.8 77 2.2 WNW 6 9 3 5 1003.0 1003.0 1.2
15/04:30pm 16.3 16.9 11.9 75 2.4 CALM 0 9 0 5 1002.8 1002.8 1.2
15/04:00pm 17.0 15.1 11.7 71 2.9 NNE 13 17 7 9 1003.0 1003.0 1.2
15/03:30pm 17.4 14.5 11.0 66 3.4 N 17 24 9 13 1003.3 1003.3 1.2
15/03:00pm 17.9 15.9 11.5 66 3.5 N 13 20 7 11 1003.4 1003.4 1.2
15/02:30pm 17.5 14.5 12.0 70 3.0 NE 19 24 10 13 1003.3 1003.3 1.2
15/02:00pm 16.9 13.1 12.4 75 2.5 NE 24 32 13 17 1004.0 1004.0 1.2
15/01:30pm 18.0 15.3 11.8 67 3.4 NNE 17 22 9 12 1004.5 1004.5 1.2

Other Formats:

Comma delimited format used in spreadsheet applications
http://www.bom.gov.au/fwo/IDN60801/IDN60801.95937.axf

JavaScript Object Notation format (JSON) in row-major order
http://www.bom.gov.au/fwo/IDN60801/IDN60801.95937.json